sensor_id;sensor_type;location;lat;lon;timestamp;P1;durP1;ratioP1;P2;durP2;ratioP2
14849;SDS011;7517;48.400;11.770;2022-08-06T00:02:20;1.90;;;1.80;;
14849;SDS011;7517;48.400;11.770;2022-08-06T00:04:50;2.10;;;1.90;;
14849;SDS011;7517;48.400;11.770;2022-08-06T00:07:17;1.97;;;1.87;;
14849;SDS011;7517;48.400;11.770;2022-08-06T00:09:45;3.73;;;1.80;;
14849;SDS011;7517;48.400;11.770;2022-08-06T00:12:12;2.30;;;2.10;;
14849;SDS011;7517;48.400;11.770;2022-08-06T00:14:40;1.80;;;1.67;;
14849;SDS011;7517;48.400;11.770;2022-08-06T00:17:08;1.53;;;1.43;;
14849;SDS011;7517;48.400;11.770;2022-08-06T00:19:35;1.80;;;1.70;;
14849;SDS011;7517;48.400;11.770;2022-08-06T00:22:02;1.97;;;1.60;;
14849;SDS011;7517;48.400;11.770;2022-08-06T00:24:30;1.93;;;1.83;;
14849;SDS011;7517;48.400;11.770;2022-08-06T00:26:57;2.63;;;1.90;;
14849;SDS011;7517;48.400;11.770;2022-08-06T00:29:24;2.10;;;1.90;;
14849;SDS011;7517;48.400;11.770;2022-08-06T00:31:51;1.73;;;1.63;;
14849;SDS011;7517;48.400;11.770;2022-08-06T00:34:20;1.77;;;1.67;;
14849;SDS011;7517;48.400;11.770;2022-08-06T00:36:47;2.20;;;2.07;;
14849;SDS011;7517;48.400;11.770;2022-08-06T00:39:14;4.30;;;1.90;;
14849;SDS011;7517;48.400;11.770;2022-08-06T00:41:41;2.37;;;2.17;;
14849;SDS011;7517;48.400;11.770;2022-08-06T00:44:09;1.83;;;1.73;;
14849;SDS011;7517;48.400;11.770;2022-08-06T00:46:36;1.97;;;1.87;;
14849;SDS011;7517;48.400;11.770;2022-08-06T00:49:03;3.07;;;2.10;;
14849;SDS011;7517;48.400;11.770;2022-08-06T00:51:33;3.53;;;2.43;;
14849;SDS011;7517;48.400;11.770;2022-08-06T00:54:01;2.77;;;2.50;;
14849;SDS011;7517;48.400;11.770;2022-08-06T00:56:28;2.20;;;2.00;;
14849;SDS011;7517;48.400;11.770;2022-08-06T00:58:55;3.53;;;2.17;;
14849;SDS011;7517;48.400;11.770;2022-08-06T01:01:22;2.77;;;2.30;;
14849;SDS011;7517;48.400;11.770;2022-08-06T01:03:49;2.83;;;2.00;;
14849;SDS011;7517;48.400;11.770;2022-08-06T01:06:16;8.13;;;2.30;;
14849;SDS011;7517;48.400;11.770;2022-08-06T01:08:45;2.77;;;2.07;;
14849;SDS011;7517;48.400;11.770;2022-08-06T01:11:12;2.40;;;2.27;;
14849;SDS011;7517;48.400;11.770;2022-08-06T01:13:40;1.83;;;1.73;;
14849;SDS011;7517;48.400;11.770;2022-08-06T01:16:09;2.37;;;2.20;;
14849;SDS011;7517;48.400;11.770;2022-08-06T01:18:43;2.30;;;2.00;;
14849;SDS011;7517;48.400;11.770;2022-08-06T01:21:26;2.60;;;2.37;;
14849;SDS011;7517;48.400;11.770;2022-08-06T01:24:33;2.50;;;2.30;;
14849;SDS011;7517;48.400;11.770;2022-08-06T01:30:12;2.30;;;2.07;;
14849;SDS011;7517;48.400;11.770;2022-08-06T01:32:43;3.53;;;2.17;;
14849;SDS011;7517;48.400;11.770;2022-08-06T01:35:18;2.70;;;2.50;;
14849;SDS011;7517;48.400;11.770;2022-08-06T01:37:53;1.87;;;1.77;;
14849;SDS011;7517;48.400;11.770;2022-08-06T01:40:28;2.53;;;2.33;;
14849;SDS011;7517;48.400;11.770;2022-08-06T01:43:03;3.20;;;2.07;;
14849;SDS011;7517;48.400;11.770;2022-08-06T01:45:35;2.30;;;2.10;;
14849;SDS011;7517;48.400;11.770;2022-08-06T01:48:06;2.90;;;1.90;;
14849;SDS011;7517;48.400;11.770;2022-08-06T01:50:40;2.27;;;2.07;;
14849;SDS011;7517;48.400;11.770;2022-08-06T01:53:14;2.33;;;2.07;;
14849;SDS011;7517;48.400;11.770;2022-08-06T01:55:47;1.87;;;1.77;;
14849;SDS011;7517;48.400;11.770;2022-08-06T01:58:24;2.90;;;2.10;;
14849;SDS011;7517;48.400;11.770;2022-08-06T02:00:56;2.53;;;1.80;;
14849;SDS011;7517;48.400;11.770;2022-08-06T02:03:28;2.30;;;2.10;;
14849;SDS011;7517;48.400;11.770;2022-08-06T02:05:58;2.17;;;2.07;;
14849;SDS011;7517;48.400;11.770;2022-08-06T02:08:29;2.30;;;2.10;;
14849;SDS011;7517;48.400;11.770;2022-08-06T02:11:03;2.80;;;2.10;;
14849;SDS011;7517;48.400;11.770;2022-08-06T02:13:36;2.10;;;1.90;;
14849;SDS011;7517;48.400;11.770;2022-08-06T02:16:08;1.93;;;1.83;;
14849;SDS011;7517;48.400;11.770;2022-08-06T02:18:39;2.20;;;2.00;;
14849;SDS011;7517;48.400;11.770;2022-08-06T02:21:12;2.13;;;1.97;;
14849;SDS011;7517;48.400;11.770;2022-08-06T02:23:45;2.43;;;2.23;;
14849;SDS011;7517;48.400;11.770;2022-08-06T02:26:15;2.70;;;2.50;;
14849;SDS011;7517;48.400;11.770;2022-08-06T02:28:47;2.60;;;2.40;;
14849;SDS011;7517;48.400;11.770;2022-08-06T02:31:18;2.70;;;2.50;;
14849;SDS011;7517;48.400;11.770;2022-08-06T02:33:45;3.13;;;2.70;;
14849;SDS011;7517;48.400;11.770;2022-08-06T02:36:14;3.07;;;2.80;;
14849;SDS011;7517;48.400;11.770;2022-08-06T02:38:47;3.70;;;3.40;;
14849;SDS011;7517;48.400;11.770;2022-08-06T02:41:23;4.47;;;4.07;;
14849;SDS011;7517;48.400;11.770;2022-08-06T02:44:01;5.27;;;4.87;;
14849;SDS011;7517;48.400;11.770;2022-08-06T02:46:37;5.30;;;4.90;;
14849;SDS011;7517;48.400;11.770;2022-08-06T02:49:12;6.23;;;5.60;;
14849;SDS011;7517;48.400;11.770;2022-08-06T02:51:48;6.30;;;5.70;;
14849;SDS011;7517;48.400;11.770;2022-08-06T02:54:22;6.23;;;5.73;;
14849;SDS011;7517;48.400;11.770;2022-08-06T02:56:58;6.73;;;6.20;;
14849;SDS011;7517;48.400;11.770;2022-08-06T02:59:33;7.30;;;6.67;;
14849;SDS011;7517;48.400;11.770;2022-08-06T03:02:09;7.80;;;7.00;;
14849;SDS011;7517;48.400;11.770;2022-08-06T03:04:42;7.30;;;6.67;;
14849;SDS011;7517;48.400;11.770;2022-08-06T03:07:22;7.37;;;6.67;;
14849;SDS011;7517;48.400;11.770;2022-08-06T03:09:53;7.93;;;7.17;;
14849;SDS011;7517;48.400;11.770;2022-08-06T03:12:22;8.27;;;7.57;;
14849;SDS011;7517;48.400;11.770;2022-08-06T03:14:52;8.03;;;7.33;;
14849;SDS011;7517;48.400;11.770;2022-08-06T03:17:20;7.30;;;6.70;;
14849;SDS011;7517;48.400;11.770;2022-08-06T03:19:50;7.10;;;6.50;;
14849;SDS011;7517;48.400;11.770;2022-08-06T03:22:18;6.60;;;6.03;;
14849;SDS011;7517;48.400;11.770;2022-08-06T03:24:48;7.17;;;6.57;;
14849;SDS011;7517;48.400;11.770;2022-08-06T03:27:17;6.70;;;6.10;;
14849;SDS011;7517;48.400;11.770;2022-08-06T03:29:49;6.70;;;6.20;;
14849;SDS011;7517;48.400;11.770;2022-08-06T03:32:19;6.97;;;6.37;;
14849;SDS011;7517;48.400;11.770;2022-08-06T03:34:48;6.57;;;6.03;;
14849;SDS011;7517;48.400;11.770;2022-08-06T03:37:17;6.10;;;5.50;;
14849;SDS011;7517;48.400;11.770;2022-08-06T03:39:47;5.40;;;5.00;;
14849;SDS011;7517;48.400;11.770;2022-08-06T03:42:16;5.27;;;4.87;;
14849;SDS011;7517;48.400;11.770;2022-08-06T03:44:44;5.40;;;4.90;;
14849;SDS011;7517;48.400;11.770;2022-08-06T03:47:13;5.40;;;5.00;;
14849;SDS011;7517;48.400;11.770;2022-08-06T03:49:50;4.90;;;4.50;;
14849;SDS011;7517;48.400;11.770;2022-08-06T03:52:28;4.30;;;3.87;;
14849;SDS011;7517;48.400;11.770;2022-08-06T03:55:02;4.10;;;3.67;;
14849;SDS011;7517;48.400;11.770;2022-08-06T03:57:35;4.00;;;3.70;;
14849;SDS011;7517;48.400;11.770;2022-08-06T04:00:07;3.87;;;3.57;;
14849;SDS011;7517;48.400;11.770;2022-08-06T04:02:38;4.37;;;4.07;;
14849;SDS011;7517;48.400;11.770;2022-08-06T04:05:10;4.10;;;3.77;;
14849;SDS011;7517;48.400;11.770;2022-08-06T04:07:40;3.87;;;3.57;;
14849;SDS011;7517;48.400;11.770;2022-08-06T04:10:08;4.27;;;3.90;;
14849;SDS011;7517;48.400;11.770;2022-08-06T04:12:38;3.17;;;2.97;;
14849;SDS011;7517;48.400;11.770;2022-08-06T04:15:06;3.20;;;2.90;;
14849;SDS011;7517;48.400;11.770;2022-08-06T04:17:38;3.07;;;2.77;;
14849;SDS011;7517;48.400;11.770;2022-08-06T04:20:10;2.90;;;2.70;;
14849;SDS011;7517;48.400;11.770;2022-08-06T04:22:41;2.60;;;2.40;;
14849;SDS011;7517;48.400;11.770;2022-08-06T04:25:09;1.80;;;1.70;;
14849;SDS011;7517;48.400;11.770;2022-08-06T04:27:38;1.80;;;1.70;;
14849;SDS011;7517;48.400;11.770;2022-08-06T04:30:08;1.57;;;1.47;;
14849;SDS011;7517;48.400;11.770;2022-08-06T04:32:38;1.20;;;1.10;;
14849;SDS011;7517;48.400;11.770;2022-08-06T04:35:10;1.07;;;1.07;;
14849;SDS011;7517;48.400;11.770;2022-08-06T04:37:38;1.40;;;1.10;;
14849;SDS011;7517;48.400;11.770;2022-08-06T04:40:07;1.50;;;1.40;;
14849;SDS011;7517;48.400;11.770;2022-08-06T04:42:36;1.60;;;1.50;;
14849;SDS011;7517;48.400;11.770;2022-08-06T04:45:04;1.70;;;1.60;;
14849;SDS011;7517;48.400;11.770;2022-08-06T04:47:35;1.70;;;1.60;;
14849;SDS011;7517;48.400;11.770;2022-08-06T04:50:07;2.20;;;2.10;;
14849;SDS011;7517;48.400;11.770;2022-08-06T04:52:36;2.33;;;2.13;;
14849;SDS011;7517;48.400;11.770;2022-08-06T04:55:04;2.47;;;2.27;;
14849;SDS011;7517;48.400;11.770;2022-08-06T04:57:33;2.37;;;2.10;;
14849;SDS011;7517;48.400;11.770;2022-08-06T05:00:00;2.40;;;2.23;;
14849;SDS011;7517;48.400;11.770;2022-08-06T05:02:29;2.43;;;2.33;;
14849;SDS011;7517;48.400;11.770;2022-08-06T05:04:57;3.23;;;2.93;;
14849;SDS011;7517;48.400;11.770;2022-08-06T05:07:25;2.40;;;2.30;;
14849;SDS011;7517;48.400;11.770;2022-08-06T05:09:57;2.67;;;2.53;;
14849;SDS011;7517;48.400;11.770;2022-08-06T05:12:27;3.03;;;2.83;;
14849;SDS011;7517;48.400;11.770;2022-08-06T05:15:02;2.83;;;2.63;;
14849;SDS011;7517;48.400;11.770;2022-08-06T05:17:37;3.17;;;2.97;;
14849;SDS011;7517;48.400;11.770;2022-08-06T05:20:14;2.80;;;2.60;;
14849;SDS011;7517;48.400;11.770;2022-08-06T05:22:45;2.93;;;2.73;;
14849;SDS011;7517;48.400;11.770;2022-08-06T05:25:17;2.53;;;2.33;;
14849;SDS011;7517;48.400;11.770;2022-08-06T05:27:45;4.27;;;2.50;;
14849;SDS011;7517;48.400;11.770;2022-08-06T05:30:13;2.20;;;2.10;;
14849;SDS011;7517;48.400;11.770;2022-08-06T05:32:40;2.50;;;2.40;;
14849;SDS011;7517;48.400;11.770;2022-08-06T05:35:08;2.13;;;2.03;;
14849;SDS011;7517;48.400;11.770;2022-08-06T05:37:37;2.23;;;2.13;;
14849;SDS011;7517;48.400;11.770;2022-08-06T05:40:05;2.27;;;2.07;;
14849;SDS011;7517;48.400;11.770;2022-08-06T05:42:34;2.37;;;2.20;;
14849;SDS011;7517;48.400;11.770;2022-08-06T05:45:02;2.40;;;2.20;;
14849;SDS011;7517;48.400;11.770;2022-08-06T05:47:32;2.40;;;2.30;;
14849;SDS011;7517;48.400;11.770;2022-08-06T05:50:04;2.00;;;1.90;;
14849;SDS011;7517;48.400;11.770;2022-08-06T05:52:39;2.57;;;2.37;;
14849;SDS011;7517;48.400;11.770;2022-08-06T05:55:14;1.80;;;1.70;;
14849;SDS011;7517;48.400;11.770;2022-08-06T05:57:49;2.10;;;2.00;;
14849;SDS011;7517;48.400;11.770;2022-08-06T06:00:23;2.10;;;2.00;;
14849;SDS011;7517;48.400;11.770;2022-08-06T06:02:56;2.37;;;2.27;;
14849;SDS011;7517;48.400;11.770;2022-08-06T06:05:26;1.90;;;1.80;;
14849;SDS011;7517;48.400;11.770;2022-08-06T06:07:56;2.33;;;2.20;;
14849;SDS011;7517;48.400;11.770;2022-08-06T06:10:25;2.17;;;2.07;;
14849;SDS011;7517;48.400;11.770;2022-08-06T06:12:53;2.00;;;1.90;;
14849;SDS011;7517;48.400;11.770;2022-08-06T06:15:22;2.43;;;2.23;;
14849;SDS011;7517;48.400;11.770;2022-08-06T06:20:49;2.60;;;2.40;;
14849;SDS011;7517;48.400;11.770;2022-08-06T06:23:31;2.00;;;1.90;;
14849;SDS011;7517;48.400;11.770;2022-08-06T06:26:14;2.20;;;2.10;;
14849;SDS011;7517;48.400;11.770;2022-08-06T06:28:53;2.50;;;2.30;;
14849;SDS011;7517;48.400;11.770;2022-08-06T06:31:28;2.70;;;2.50;;
14849;SDS011;7517;48.400;11.770;2022-08-06T06:34:04;2.70;;;2.50;;
14849;SDS011;7517;48.400;11.770;2022-08-06T06:36:39;2.50;;;2.40;;
14849;SDS011;7517;48.400;11.770;2022-08-06T06:39:21;3.00;;;2.80;;
14849;SDS011;7517;48.400;11.770;2022-08-06T06:42:00;2.80;;;2.60;;
14849;SDS011;7517;48.400;11.770;2022-08-06T06:44:35;2.50;;;2.30;;
14849;SDS011;7517;48.400;11.770;2022-08-06T06:47:14;2.73;;;2.53;;
14849;SDS011;7517;48.400;11.770;2022-08-06T06:49:48;2.87;;;2.63;;
14849;SDS011;7517;48.400;11.770;2022-08-06T06:52:21;3.70;;;3.40;;
14849;SDS011;7517;48.400;11.770;2022-08-06T06:54:56;3.50;;;3.00;;
14849;SDS011;7517;48.400;11.770;2022-08-06T06:57:31;3.20;;;3.00;;
14849;SDS011;7517;48.400;11.770;2022-08-06T07:00:04;3.57;;;3.37;;
14849;SDS011;7517;48.400;11.770;2022-08-06T07:02:34;3.80;;;3.60;;
14849;SDS011;7517;48.400;11.770;2022-08-06T07:05:05;3.67;;;3.47;;
14849;SDS011;7517;48.400;11.770;2022-08-06T07:07:37;3.40;;;3.17;;
14849;SDS011;7517;48.400;11.770;2022-08-06T07:10:10;3.97;;;3.53;;
14849;SDS011;7517;48.400;11.770;2022-08-06T07:12:39;3.90;;;3.60;;
14849;SDS011;7517;48.400;11.770;2022-08-06T07:15:09;4.40;;;4.00;;
14849;SDS011;7517;48.400;11.770;2022-08-06T07:17:40;3.97;;;3.63;;
14849;SDS011;7517;48.400;11.770;2022-08-06T07:20:10;3.63;;;3.43;;
14849;SDS011;7517;48.400;11.770;2022-08-06T07:22:40;3.80;;;3.50;;
14849;SDS011;7517;48.400;11.770;2022-08-06T07:25:12;4.00;;;3.70;;
14849;SDS011;7517;48.400;11.770;2022-08-06T07:27:42;4.40;;;4.00;;
14849;SDS011;7517;48.400;11.770;2022-08-06T07:30:14;3.63;;;3.33;;
14849;SDS011;7517;48.400;11.770;2022-08-06T07:32:45;3.83;;;3.60;;
14849;SDS011;7517;48.400;11.770;2022-08-06T07:35:14;4.00;;;3.70;;
14849;SDS011;7517;48.400;11.770;2022-08-06T07:37:46;3.63;;;3.43;;
14849;SDS011;7517;48.400;11.770;2022-08-06T07:40:25;3.97;;;3.67;;
14849;SDS011;7517;48.400;11.770;2022-08-06T07:42:58;3.77;;;3.43;;
14849;SDS011;7517;48.400;11.770;2022-08-06T07:45:32;4.23;;;3.70;;
14849;SDS011;7517;48.400;11.770;2022-08-06T07:48:00;3.73;;;3.53;;
14849;SDS011;7517;48.400;11.770;2022-08-06T07:50:35;4.07;;;3.77;;
14849;SDS011;7517;48.400;11.770;2022-08-06T07:53:05;4.10;;;3.80;;
14849;SDS011;7517;48.400;11.770;2022-08-06T07:55:34;4.10;;;3.80;;
14849;SDS011;7517;48.400;11.770;2022-08-06T07:58:03;3.77;;;3.47;;
14849;SDS011;7517;48.400;11.770;2022-08-06T08:00:32;4.07;;;3.40;;
14849;SDS011;7517;48.400;11.770;2022-08-06T08:03:02;3.60;;;3.40;;
14849;SDS011;7517;48.400;11.770;2022-08-06T08:05:50;3.83;;;3.47;;
14849;SDS011;7517;48.400;11.770;2022-08-06T08:08:35;3.80;;;3.30;;
14849;SDS011;7517;48.400;11.770;2022-08-06T08:11:05;4.30;;;3.87;;
14849;SDS011;7517;48.400;11.770;2022-08-06T08:13:34;4.13;;;3.83;;
14849;SDS011;7517;48.400;11.770;2022-08-06T08:16:04;3.83;;;3.53;;
14849;SDS011;7517;48.400;11.770;2022-08-06T08:18:34;3.93;;;3.63;;
14849;SDS011;7517;48.400;11.770;2022-08-06T08:21:01;3.83;;;3.63;;
14849;SDS011;7517;48.400;11.770;2022-08-06T08:23:29;4.30;;;4.00;;
14849;SDS011;7517;48.400;11.770;2022-08-06T08:25:58;3.60;;;3.40;;
14849;SDS011;7517;48.400;11.770;2022-08-06T08:28:29;3.63;;;3.43;;
14849;SDS011;7517;48.400;11.770;2022-08-06T08:30:56;3.70;;;3.50;;
14849;SDS011;7517;48.400;11.770;2022-08-06T08:33:26;3.63;;;3.40;;
14849;SDS011;7517;48.400;11.770;2022-08-06T08:35:55;3.53;;;3.33;;
14849;SDS011;7517;48.400;11.770;2022-08-06T08:38:22;3.73;;;3.53;;
14849;SDS011;7517;48.400;11.770;2022-08-06T08:40:50;3.70;;;3.50;;
14849;SDS011;7517;48.400;11.770;2022-08-06T08:43:22;3.70;;;3.40;;
14849;SDS011;7517;48.400;11.770;2022-08-06T08:45:57;3.10;;;2.90;;
14849;SDS011;7517;48.400;11.770;2022-08-06T08:48:27;3.33;;;3.03;;
14849;SDS011;7517;48.400;11.770;2022-08-06T08:50:58;3.40;;;3.00;;
14849;SDS011;7517;48.400;11.770;2022-08-06T08:53:29;3.37;;;3.13;;
14849;SDS011;7517;48.400;11.770;2022-08-06T08:56:03;3.90;;;3.60;;
14849;SDS011;7517;48.400;11.770;2022-08-06T08:58:33;3.40;;;3.20;;
14849;SDS011;7517;48.400;11.770;2022-08-06T09:01:05;3.27;;;3.07;;
14849;SDS011;7517;48.400;11.770;2022-08-06T09:03:35;3.13;;;2.93;;
14849;SDS011;7517;48.400;11.770;2022-08-06T09:06:05;3.10;;;2.80;;
14849;SDS011;7517;48.400;11.770;2022-08-06T09:08:34;3.13;;;2.93;;
14849;SDS011;7517;48.400;11.770;2022-08-06T09:11:02;2.90;;;2.70;;
14849;SDS011;7517;48.400;11.770;2022-08-06T09:13:31;3.40;;;3.10;;
14849;SDS011;7517;48.400;11.770;2022-08-06T09:15:58;3.27;;;3.03;;
14849;SDS011;7517;48.400;11.770;2022-08-06T09:18:28;2.73;;;2.63;;
14849;SDS011;7517;48.400;11.770;2022-08-06T09:20:55;3.30;;;3.10;;
14849;SDS011;7517;48.400;11.770;2022-08-06T09:23:26;3.13;;;2.93;;
14849;SDS011;7517;48.400;11.770;2022-08-06T09:25:54;2.83;;;2.70;;
14849;SDS011;7517;48.400;11.770;2022-08-06T09:28:29;2.80;;;2.60;;
14849;SDS011;7517;48.400;11.770;2022-08-06T09:31:02;2.87;;;2.77;;
14849;SDS011;7517;48.400;11.770;2022-08-06T09:33:35;3.00;;;2.80;;
14849;SDS011;7517;48.400;11.770;2022-08-06T09:36:05;3.00;;;2.80;;
14849;SDS011;7517;48.400;11.770;2022-08-06T09:38:44;2.90;;;2.70;;
14849;SDS011;7517;48.400;11.770;2022-08-06T09:41:13;4.53;;;2.90;;
14849;SDS011;7517;48.400;11.770;2022-08-06T09:43:42;3.03;;;2.83;;
14849;SDS011;7517;48.400;11.770;2022-08-06T09:46:10;2.83;;;2.73;;
14849;SDS011;7517;48.400;11.770;2022-08-06T09:48:41;3.03;;;2.83;;
14849;SDS011;7517;48.400;11.770;2022-08-06T09:51:23;2.97;;;2.73;;
14849;SDS011;7517;48.400;11.770;2022-08-06T09:53:52;2.50;;;2.40;;
14849;SDS011;7517;48.400;11.770;2022-08-06T09:56:21;2.77;;;2.57;;
14849;SDS011;7517;48.400;11.770;2022-08-06T09:58:49;3.23;;;3.03;;
14849;SDS011;7517;48.400;11.770;2022-08-06T10:01:17;2.83;;;2.73;;
14849;SDS011;7517;48.400;11.770;2022-08-06T10:03:52;2.60;;;2.47;;
14849;SDS011;7517;48.400;11.770;2022-08-06T10:06:21;2.63;;;2.53;;
14849;SDS011;7517;48.400;11.770;2022-08-06T10:08:51;3.00;;;2.80;;
14849;SDS011;7517;48.400;11.770;2022-08-06T10:11:34;2.80;;;2.60;;
14849;SDS011;7517;48.400;11.770;2022-08-06T10:14:04;3.50;;;3.20;;
14849;SDS011;7517;48.400;11.770;2022-08-06T10:16:32;4.77;;;3.80;;
14849;SDS011;7517;48.400;11.770;2022-08-06T10:19:00;4.03;;;3.83;;
14849;SDS011;7517;48.400;11.770;2022-08-06T10:21:32;4.30;;;3.90;;
14849;SDS011;7517;48.400;11.770;2022-08-06T10:24:00;4.50;;;4.20;;
14849;SDS011;7517;48.400;11.770;2022-08-06T10:26:32;4.63;;;4.27;;
14849;SDS011;7517;48.400;11.770;2022-08-06T10:29:00;5.00;;;4.60;;
14849;SDS011;7517;48.400;11.770;2022-08-06T10:31:31;5.13;;;4.83;;
14849;SDS011;7517;48.400;11.770;2022-08-06T10:34:05;4.60;;;4.30;;
14849;SDS011;7517;48.400;11.770;2022-08-06T10:36:36;4.83;;;4.43;;
14849;SDS011;7517;48.400;11.770;2022-08-06T10:39:06;4.30;;;3.97;;
14849;SDS011;7517;48.400;11.770;2022-08-06T10:41:34;5.17;;;4.77;;
14849;SDS011;7517;48.400;11.770;2022-08-06T10:44:05;5.00;;;4.67;;
14849;SDS011;7517;48.400;11.770;2022-08-06T10:46:33;4.70;;;4.30;;
14849;SDS011;7517;48.400;11.770;2022-08-06T10:49:03;5.63;;;4.27;;
14849;SDS011;7517;48.400;11.770;2022-08-06T10:51:33;4.07;;;3.83;;
14849;SDS011;7517;48.400;11.770;2022-08-06T10:54:03;5.63;;;5.13;;
14849;SDS011;7517;48.400;11.770;2022-08-06T10:56:31;5.17;;;4.73;;
14849;SDS011;7517;48.400;11.770;2022-08-06T10:58:59;4.60;;;4.30;;
14849;SDS011;7517;48.400;11.770;2022-08-06T11:01:28;4.53;;;4.20;;
14849;SDS011;7517;48.400;11.770;2022-08-06T11:04:14;5.17;;;4.87;;
14849;SDS011;7517;48.400;11.770;2022-08-06T11:06:56;4.20;;;3.80;;
14849;SDS011;7517;48.400;11.770;2022-08-06T11:09:53;4.30;;;4.00;;
14849;SDS011;7517;48.400;11.770;2022-08-06T11:12:39;4.10;;;3.70;;
14849;SDS011;7517;48.400;11.770;2022-08-06T11:15:15;5.20;;;4.07;;
14849;SDS011;7517;48.400;11.770;2022-08-06T11:17:45;4.07;;;3.87;;
14849;SDS011;7517;48.400;11.770;2022-08-06T11:23:21;3.17;;;3.00;;
14849;SDS011;7517;48.400;11.770;2022-08-06T11:25:55;3.00;;;2.80;;
14849;SDS011;7517;48.400;11.770;2022-08-06T11:31:30;3.70;;;3.50;;
14849;SDS011;7517;48.400;11.770;2022-08-06T11:34:11;3.30;;;3.00;;
14849;SDS011;7517;48.400;11.770;2022-08-06T11:36:44;3.10;;;2.90;;
14849;SDS011;7517;48.400;11.770;2022-08-06T11:39:14;2.83;;;2.63;;
14849;SDS011;7517;48.400;11.770;2022-08-06T11:41:46;3.60;;;3.40;;
14849;SDS011;7517;48.400;11.770;2022-08-06T11:44:22;3.57;;;3.37;;
14849;SDS011;7517;48.400;11.770;2022-08-06T11:49:45;2.90;;;2.80;;
14849;SDS011;7517;48.400;11.770;2022-08-06T11:55:08;3.83;;;3.53;;
14849;SDS011;7517;48.400;11.770;2022-08-06T11:57:38;2.93;;;2.80;;
14849;SDS011;7517;48.400;11.770;2022-08-06T12:00:07;3.20;;;2.93;;
14849;SDS011;7517;48.400;11.770;2022-08-06T12:02:46;3.43;;;3.23;;
14849;SDS011;7517;48.400;11.770;2022-08-06T12:08:18;3.10;;;2.90;;
14849;SDS011;7517;48.400;11.770;2022-08-06T12:14:02;2.73;;;2.50;;
14849;SDS011;7517;48.400;11.770;2022-08-06T12:16:35;3.13;;;2.83;;
14849;SDS011;7517;48.400;11.770;2022-08-06T12:19:05;3.40;;;2.77;;
14849;SDS011;7517;48.400;11.770;2022-08-06T12:21:40;3.30;;;3.10;;
14849;SDS011;7517;48.400;11.770;2022-08-06T12:24:11;3.53;;;3.33;;
14849;SDS011;7517;48.400;11.770;2022-08-06T12:26:38;3.27;;;3.07;;
14849;SDS011;7517;48.400;11.770;2022-08-06T12:29:06;2.87;;;2.67;;
14849;SDS011;7517;48.400;11.770;2022-08-06T12:31:35;2.90;;;2.70;;
14849;SDS011;7517;48.400;11.770;2022-08-06T12:34:06;2.90;;;2.80;;
14849;SDS011;7517;48.400;11.770;2022-08-06T12:36:34;3.00;;;2.77;;
14849;SDS011;7517;48.400;11.770;2022-08-06T12:39:04;3.00;;;2.80;;
14849;SDS011;7517;48.400;11.770;2022-08-06T12:41:40;3.13;;;2.93;;
14849;SDS011;7517;48.400;11.770;2022-08-06T12:44:08;3.20;;;3.00;;
14849;SDS011;7517;48.400;11.770;2022-08-06T12:46:37;3.20;;;3.00;;
14849;SDS011;7517;48.400;11.770;2022-08-06T12:49:05;2.73;;;2.60;;
14849;SDS011;7517;48.400;11.770;2022-08-06T12:51:33;3.47;;;3.17;;
14849;SDS011;7517;48.400;11.770;2022-08-06T12:54:02;2.90;;;2.70;;
14849;SDS011;7517;48.400;11.770;2022-08-06T12:56:35;2.90;;;2.80;;
14849;SDS011;7517;48.400;11.770;2022-08-06T12:59:09;2.70;;;2.50;;
14849;SDS011;7517;48.400;11.770;2022-08-06T13:01:38;2.90;;;2.70;;
14849;SDS011;7517;48.400;11.770;2022-08-06T13:04:10;2.60;;;2.40;;
14849;SDS011;7517;48.400;11.770;2022-08-06T13:06:38;2.90;;;2.70;;
14849;SDS011;7517;48.400;11.770;2022-08-06T13:09:06;2.70;;;2.50;;
14849;SDS011;7517;48.400;11.770;2022-08-06T13:11:34;2.80;;;2.60;;
14849;SDS011;7517;48.400;11.770;2022-08-06T13:14:10;3.30;;;3.00;;
14849;SDS011;7517;48.400;11.770;2022-08-06T13:16:40;3.07;;;2.87;;
14849;SDS011;7517;48.400;11.770;2022-08-06T13:19:11;2.73;;;2.53;;
14849;SDS011;7517;48.400;11.770;2022-08-06T13:21:41;2.90;;;2.70;;
14849;SDS011;7517;48.400;11.770;2022-08-06T13:24:25;4.20;;;2.83;;
14849;SDS011;7517;48.400;11.770;2022-08-06T13:26:54;2.60;;;2.40;;
14849;SDS011;7517;48.400;11.770;2022-08-06T13:29:24;2.73;;;2.60;;
14849;SDS011;7517;48.400;11.770;2022-08-06T13:32:00;2.57;;;2.37;;
14849;SDS011;7517;48.400;11.770;2022-08-06T13:34:43;2.40;;;2.30;;
14849;SDS011;7517;48.400;11.770;2022-08-06T13:37:12;2.43;;;2.23;;
14849;SDS011;7517;48.400;11.770;2022-08-06T13:39:48;2.43;;;2.23;;
14849;SDS011;7517;48.400;11.770;2022-08-06T13:42:16;2.63;;;2.47;;
14849;SDS011;7517;48.400;11.770;2022-08-06T13:44:45;2.53;;;2.33;;
14849;SDS011;7517;48.400;11.770;2022-08-06T13:47:13;2.60;;;2.40;;
14849;SDS011;7517;48.400;11.770;2022-08-06T13:49:52;2.80;;;2.60;;
14849;SDS011;7517;48.400;11.770;2022-08-06T13:52:20;2.43;;;2.27;;
14849;SDS011;7517;48.400;11.770;2022-08-06T13:54:55;2.20;;;2.10;;
14849;SDS011;7517;48.400;11.770;2022-08-06T13:57:34;2.40;;;2.30;;
14849;SDS011;7517;48.400;11.770;2022-08-06T14:00:03;2.30;;;2.20;;
14849;SDS011;7517;48.400;11.770;2022-08-06T14:02:35;2.00;;;1.90;;
14849;SDS011;7517;48.400;11.770;2022-08-06T14:05:08;2.83;;;2.40;;
14849;SDS011;7517;48.400;11.770;2022-08-06T14:07:41;2.63;;;1.97;;
14849;SDS011;7517;48.400;11.770;2022-08-06T14:10:11;2.53;;;2.20;;
14849;SDS011;7517;48.400;11.770;2022-08-06T14:12:38;2.00;;;1.90;;
14849;SDS011;7517;48.400;11.770;2022-08-06T14:15:29;2.20;;;2.10;;
14849;SDS011;7517;48.400;11.770;2022-08-06T14:17:59;2.00;;;1.90;;
14849;SDS011;7517;48.400;11.770;2022-08-06T14:20:35;2.60;;;2.10;;
14849;SDS011;7517;48.400;11.770;2022-08-06T14:23:02;2.00;;;1.90;;
14849;SDS011;7517;48.400;11.770;2022-08-06T14:25:30;2.27;;;2.07;;
14849;SDS011;7517;48.400;11.770;2022-08-06T14:27:57;1.90;;;1.80;;
14849;SDS011;7517;48.400;11.770;2022-08-06T14:30:25;2.10;;;1.90;;
14849;SDS011;7517;48.400;11.770;2022-08-06T14:32:54;1.70;;;1.60;;
14849;SDS011;7517;48.400;11.770;2022-08-06T14:35:22;1.73;;;1.63;;
14849;SDS011;7517;48.400;11.770;2022-08-06T14:37:49;1.90;;;1.80;;
14849;SDS011;7517;48.400;11.770;2022-08-06T14:40:19;1.80;;;1.70;;
14849;SDS011;7517;48.400;11.770;2022-08-06T14:43:02;1.67;;;1.50;;
14849;SDS011;7517;48.400;11.770;2022-08-06T14:45:47;2.10;;;2.00;;
14849;SDS011;7517;48.400;11.770;2022-08-06T14:48:16;1.90;;;1.80;;
14849;SDS011;7517;48.400;11.770;2022-08-06T14:50:43;1.70;;;1.60;;
14849;SDS011;7517;48.400;11.770;2022-08-06T14:53:10;2.07;;;1.77;;
14849;SDS011;7517;48.400;11.770;2022-08-06T14:55:37;2.57;;;2.40;;
14849;SDS011;7517;48.400;11.770;2022-08-06T14:58:05;3.00;;;2.70;;
14849;SDS011;7517;48.400;11.770;2022-08-06T15:00:32;2.50;;;2.40;;
14849;SDS011;7517;48.400;11.770;2022-08-06T15:02:59;2.47;;;2.37;;
14849;SDS011;7517;48.400;11.770;2022-08-06T15:05:28;2.50;;;2.40;;
14849;SDS011;7517;48.400;11.770;2022-08-06T15:07:55;2.03;;;1.93;;
14849;SDS011;7517;48.400;11.770;2022-08-06T15:10:22;1.90;;;1.80;;
14849;SDS011;7517;48.400;11.770;2022-08-06T15:12:49;2.17;;;2.00;;
14849;SDS011;7517;48.400;11.770;2022-08-06T15:15:17;1.70;;;1.60;;
14849;SDS011;7517;48.400;11.770;2022-08-06T15:17:44;2.00;;;1.90;;
14849;SDS011;7517;48.400;11.770;2022-08-06T15:20:12;2.10;;;2.00;;
14849;SDS011;7517;48.400;11.770;2022-08-06T15:22:40;2.00;;;1.90;;
14849;SDS011;7517;48.400;11.770;2022-08-06T15:25:07;1.87;;;1.77;;
14849;SDS011;7517;48.400;11.770;2022-08-06T15:27:35;2.10;;;2.00;;
14849;SDS011;7517;48.400;11.770;2022-08-06T15:30:02;2.00;;;1.90;;
14849;SDS011;7517;48.400;11.770;2022-08-06T15:32:30;2.03;;;1.93;;
14849;SDS011;7517;48.400;11.770;2022-08-06T15:34:58;2.67;;;2.17;;
14849;SDS011;7517;48.400;11.770;2022-08-06T15:37:25;2.30;;;2.17;;